Willow Bend, West Virginia
Current Conditions -  °F | °C
As of 4:55 AM on Friday 26 Dec 2014 (Local Time) from KLWB Reporting Station
Clear Clear  
Wind Chill: 24°   Ceiling: Unl
Heat Index: 24°   Visibility: 10mi
Dew Point: 22°   Wind: 0mph
Humidity: 93%   Direction: NA
Pressure: 30.25"   Gusts: NA
Location:  37.5611°N, 80.5102°W
Report Text: KLWB 260955Z AUTO 00000KT 10SM CLR M04/M05 A3025 RMK AO2 T10431053
Loading
Personal Weather Stations






























Interactive Weather Map New forecast layout! Learn more

10-Day Weather Forecast

Advertisements
Track Severe Weather on mobile